ONT weather

Ontario International Airport
Ontario, California, United States

Public forecast

Using degrees Fahrenheit for public forecast. Weather courtesy of forecast.io.

METAR (pilot weather report)

Retrieved 2019/03/23 07:53 UTC (12 minutes ago):

KONT 230753Z 26005KT 10SM FEW040 BKN250 13/08 A3016 RMK AO2 SLP208 T01280083 402060100

TAF (pilot weather forecast)

Retrieved 2019/03/23 06:22 UTC (2 hours ago):

TAF KONT 230520Z 2306/2412 VRB04KT P6SM SCT040 BKN250 FM231100 VRB04KT P6SM SCT015 BKN025 FM231600 VRB04KT P6SM SCT030 FM232000 25010KT P6SM SCT040 FM240400 VRB05KT P6SM BKN030